sensor_id;sensor_type;location;lat;lon;timestamp;temperature;humidity
10441;DHT22;5268;49.346;9.522;2022-11-21T04:24:19;6.60;99.90
10441;DHT22;5268;49.346;9.522;2022-11-21T04:29:21;6.60;99.90
10441;DHT22;5268;49.346;9.522;2022-11-21T04:34:23;6.60;99.90
10441;DHT22;5268;49.346;9.522;2022-11-21T04:39:26;6.60;99.90
10441;DHT22;5268;49.346;9.522;2022-11-21T04:44:29;6.60;99.90
10441;DHT22;5268;49.346;9.522;2022-11-21T04:49:31;6.60;99.90
10441;DHT22;5268;49.346;9.522;2022-11-21T04:54:35;6.60;99.90
10441;DHT22;5268;49.346;9.522;2022-11-21T04:59:37;6.60;99.90
10441;DHT22;5268;49.346;9.522;2022-11-21T05:04:39;6.60;99.90
10441;DHT22;5268;49.346;9.522;2022-11-21T05:09:43;6.60;99.90
10441;DHT22;5268;49.346;9.522;2022-11-21T05:14:45;6.60;99.90
10441;DHT22;5268;49.346;9.522;2022-11-21T05:19:47;6.60;99.90
10441;DHT22;5268;49.346;9.522;2022-11-21T05:24:50;6.60;99.90
10441;DHT22;5268;49.346;9.522;2022-11-21T05:29:52;6.60;99.90
10441;DHT22;5268;49.346;9.522;2022-11-21T05:34:55;6.60;99.90
10441;DHT22;5268;49.346;9.522;2022-11-21T05:39:58;6.60;99.90
10441;DHT22;5268;49.346;9.522;2022-11-21T05:45:00;6.60;99.90
10441;DHT22;5268;49.346;9.522;2022-11-21T05:50:03;6.60;99.90
10441;DHT22;5268;49.346;9.522;2022-11-21T05:55:07;6.60;99.90
10441;DHT22;5268;49.346;9.522;2022-11-21T06:00:10;6.60;99.90
10441;DHT22;5268;49.346;9.522;2022-11-21T06:05:12;6.60;99.90
10441;DHT22;5268;49.346;9.522;2022-11-21T06:10:16;6.70;99.90
10441;DHT22;5268;49.346;9.522;2022-11-21T06:15:19;6.70;99.90
10441;DHT22;5268;49.346;9.522;2022-11-21T06:20:21;6.70;99.90
10441;DHT22;5268;49.346;9.522;2022-11-21T06:25:24;6.70;99.90
10441;DHT22;5268;49.346;9.522;2022-11-21T06:30:26;6.70;99.90
10441;DHT22;5268;49.346;9.522;2022-11-21T06:35:28;6.70;99.90
10441;DHT22;5268;49.346;9.522;2022-11-21T06:40:32;6.70;99.90
10441;DHT22;5268;49.346;9.522;2022-11-21T06:45:34;6.70;99.90
10441;DHT22;5268;49.346;9.522;2022-11-21T06:50:36;6.70;99.90
10441;DHT22;5268;49.346;9.522;2022-11-21T06:55:40;6.70;99.90
10441;DHT22;5268;49.346;9.522;2022-11-21T07:00:42;6.70;99.90
10441;DHT22;5268;49.346;9.522;2022-11-21T07:05:45;6.70;99.90
10441;DHT22;5268;49.346;9.522;2022-11-21T07:10:49;6.70;99.90
10441;DHT22;5268;49.346;9.522;2022-11-21T07:15:53;6.70;99.90
10441;DHT22;5268;49.346;9.522;2022-11-21T07:20:57;6.70;99.90
10441;DHT22;5268;49.346;9.522;2022-11-21T07:26:01;6.70;99.90
10441;DHT22;5268;49.346;9.522;2022-11-21T07:31:03;6.70;99.90
10441;DHT22;5268;49.346;9.522;2022-11-21T07:36:05;6.70;99.90
10441;DHT22;5268;49.346;9.522;2022-11-21T07:41:09;6.70;99.90
10441;DHT22;5268;49.346;9.522;2022-11-21T07:46:11;6.70;99.90
10441;DHT22;5268;49.346;9.522;2022-11-21T07:51:13;6.70;99.90
10441;DHT22;5268;49.346;9.522;2022-11-21T07:56:16;6.80;99.90
10441;DHT22;5268;49.346;9.522;2022-11-21T08:01:18;6.80;99.90
10441;DHT22;5268;49.346;9.522;2022-11-21T08:06:20;6.80;99.90
10441;DHT22;5268;49.346;9.522;2022-11-21T08:11:24;6.90;99.90
10441;DHT22;5268;49.346;9.522;2022-11-21T08:16:26;6.90;99.90
10441;DHT22;5268;49.346;9.522;2022-11-21T08:21:32;6.90;99.90
10441;DHT22;5268;49.346;9.522;2022-11-21T08:26:35;6.90;99.90
10441;DHT22;5268;49.346;9.522;2022-11-21T08:31:38;6.90;99.90
10441;DHT22;5268;49.346;9.522;2022-11-21T08:36:40;7.00;99.90
10441;DHT22;5268;49.346;9.522;2022-11-21T08:41:43;7.00;99.90
10441;DHT22;5268;49.346;9.522;2022-11-21T08:47:04;7.00;99.90
10441;DHT22;5268;49.346;9.522;2022-11-21T08:52:06;7.00;99.90
10441;DHT22;5268;49.346;9.522;2022-11-21T08:57:09;7.00;99.90
10441;DHT22;5268;49.346;9.522;2022-11-21T09:02:11;7.10;99.90
10441;DHT22;5268;49.346;9.522;2022-11-21T09:07:13;7.10;99.90
10441;DHT22;5268;49.346;9.522;2022-11-21T09:12:17;7.20;99.90
10441;DHT22;5268;49.346;9.522;2022-11-21T09:17:19;7.20;99.90
10441;DHT22;5268;49.346;9.522;2022-11-21T09:22:39;7.20;99.90
10441;DHT22;5268;49.346;9.522;2022-11-21T09:27:42;7.30;99.90
10441;DHT22;5268;49.346;9.522;2022-11-21T09:32:44;7.30;99.90
10441;DHT22;5268;49.346;9.522;2022-11-21T09:37:46;7.30;99.90
10441;DHT22;5268;49.346;9.522;2022-11-21T09:48:45;7.30;99.90
10441;DHT22;5268;49.346;9.522;2022-11-21T09:53:54;7.40;99.90
10441;DHT22;5268;49.346;9.522;2022-11-21T09:59:06;7.50;99.90
10441;DHT22;5268;49.346;9.522;2022-11-21T10:04:15;7.60;99.90
10441;DHT22;5268;49.346;9.522;2022-11-21T10:09:23;7.70;99.90
10441;DHT22;5268;49.346;9.522;2022-11-21T10:14:38;7.80;99.90
10441;DHT22;5268;49.346;9.522;2022-11-21T10:20:05;8.00;99.90
10441;DHT22;5268;49.346;9.522;2022-11-21T10:25:12;8.30;99.90
10441;DHT22;5268;49.346;9.522;2022-11-21T10:30:17;8.70;99.90
10441;DHT22;5268;49.346;9.522;2022-11-21T10:35:23;9.10;99.90
10441;DHT22;5268;49.346;9.522;2022-11-21T10:40:34;9.30;99.90
10441;DHT22;5268;49.346;9.522;2022-11-21T10:45:36;9.60;99.90
10441;DHT22;5268;49.346;9.522;2022-11-21T10:50:49;9.90;99.90
10441;DHT22;5268;49.346;9.522;2022-11-21T10:55:59;10.10;99.90
10441;DHT22;5268;49.346;9.522;2022-11-21T11:01:02;10.30;99.90
10441;DHT22;5268;49.346;9.522;2022-11-21T11:06:06;10.30;99.90
10441;DHT22;5268;49.346;9.522;2022-11-21T11:11:13;10.20;99.90
10441;DHT22;5268;49.346;9.522;2022-11-21T11:16:17;10.20;99.90
10441;DHT22;5268;49.346;9.522;2022-11-21T11:21:22;10.20;99.90
10441;DHT22;5268;49.346;9.522;2022-11-21T11:26:26;10.20;99.90
10441;DHT22;5268;49.346;9.522;2022-11-21T11:31:39;10.10;99.90
10441;DHT22;5268;49.346;9.522;2022-11-21T11:37:07;9.90;99.90
10441;DHT22;5268;49.346;9.522;2022-11-21T11:42:51;9.80;99.90
10441;DHT22;5268;49.346;9.522;2022-11-21T11:48:11;9.90;99.90
10441;DHT22;5268;49.346;9.522;2022-11-21T11:53:18;10.00;99.90
10441;DHT22;5268;49.346;9.522;2022-11-21T11:58:24;10.10;99.90
10441;DHT22;5268;49.346;9.522;2022-11-21T12:03:37;10.20;99.90
10441;DHT22;5268;49.346;9.522;2022-11-21T12:08:47;10.40;99.90
10441;DHT22;5268;49.346;9.522;2022-11-21T12:13:54;10.20;99.90
10441;DHT22;5268;49.346;9.522;2022-11-21T12:19:01;10.00;99.90
10441;DHT22;5268;49.346;9.522;2022-11-21T12:24:09;9.80;99.90
10441;DHT22;5268;49.346;9.522;2022-11-21T12:29:23;9.80;99.90
10441;DHT22;5268;49.346;9.522;2022-11-21T12:34:39;9.80;99.90
10441;DHT22;5268;49.346;9.522;2022-11-21T12:39:58;9.90;99.90
10441;DHT22;5268;49.346;9.522;2022-11-21T12:45:13;9.90;99.90
10441;DHT22;5268;49.346;9.522;2022-11-21T12:50:25;9.90;99.90
10441;DHT22;5268;49.346;9.522;2022-11-21T12:55:54;9.90;99.90
10441;DHT22;5268;49.346;9.522;2022-11-21T13:01:14;9.90;99.90
10441;DHT22;5268;49.346;9.522;2022-11-21T13:06:22;9.90;99.90
10441;DHT22;5268;49.346;9.522;2022-11-21T13:11:43;10.00;99.90
10441;DHT22;5268;49.346;9.522;2022-11-21T13:17:09;10.10;99.90
10441;DHT22;5268;49.346;9.522;2022-11-21T13:22:48;10.10;99.90
10441;DHT22;5268;49.346;9.522;2022-11-21T13:27:52;10.20;99.90
10441;DHT22;5268;49.346;9.522;2022-11-21T13:32:54;10.20;99.90
10441;DHT22;5268;49.346;9.522;2022-11-21T13:38:00;10.20;99.90
10441;DHT22;5268;49.346;9.522;2022-11-21T13:43:25;10.10;99.90
10441;DHT22;5268;49.346;9.522;2022-11-21T13:48:44;10.10;99.90
10441;DHT22;5268;49.346;9.522;2022-11-21T13:59:47;9.80;99.90
10441;DHT22;5268;49.346;9.522;2022-11-21T14:10:31;9.40;99.90
10441;DHT22;5268;49.346;9.522;2022-11-21T14:15:41;9.30;99.90
10441;DHT22;5268;49.346;9.522;2022-11-21T14:20:51;9.10;99.90
10441;DHT22;5268;49.346;9.522;2022-11-21T14:25:59;9.00;99.90
10441;DHT22;5268;49.346;9.522;2022-11-21T14:31:06;9.00;99.90
10441;DHT22;5268;49.346;9.522;2022-11-21T14:36:12;9.00;99.90
10441;DHT22;5268;49.346;9.522;2022-11-21T14:41:29;9.10;99.90
10441;DHT22;5268;49.346;9.522;2022-11-21T14:46:35;9.00;99.90
10441;DHT22;5268;49.346;9.522;2022-11-21T14:51:38;9.00;99.90
10441;DHT22;5268;49.346;9.522;2022-11-21T14:56:41;9.00;99.90
10441;DHT22;5268;49.346;9.522;2022-11-21T15:01:57;9.00;99.90
10441;DHT22;5268;49.346;9.522;2022-11-21T15:06:59;9.00;99.90
10441;DHT22;5268;49.346;9.522;2022-11-21T15:12:04;9.00;99.90
10441;DHT22;5268;49.346;9.522;2022-11-21T15:17:12;8.90;99.90
10441;DHT22;5268;49.346;9.522;2022-11-21T15:22:20;8.90;99.90
10441;DHT22;5268;49.346;9.522;2022-11-21T15:27:30;8.90;99.90
10441;DHT22;5268;49.346;9.522;2022-11-21T15:32:58;8.90;99.90
10441;DHT22;5268;49.346;9.522;2022-11-21T15:38:00;8.80;99.90
10441;DHT22;5268;49.346;9.522;2022-11-21T15:43:02;8.70;99.90
10441;DHT22;5268;49.346;9.522;2022-11-21T15:48:06;8.50;99.90
10441;DHT22;5268;49.346;9.522;2022-11-21T15:53:17;8.40;99.90
10441;DHT22;5268;49.346;9.522;2022-11-21T15:58:19;8.30;99.90
10441;DHT22;5268;49.346;9.522;2022-11-21T16:03:23;8.10;99.90
10441;DHT22;5268;49.346;9.522;2022-11-21T16:08:25;8.00;99.90
10441;DHT22;5268;49.346;9.522;2022-11-21T16:13:27;7.80;99.90
10441;DHT22;5268;49.346;9.522;2022-11-21T16:18:30;7.70;99.90
10441;DHT22;5268;49.346;9.522;2022-11-21T16:23:32;7.60;99.90
10441;DHT22;5268;49.346;9.522;2022-11-21T16:28:35;7.50;99.90
10441;DHT22;5268;49.346;9.522;2022-11-21T16:33:38;7.40;99.90
10441;DHT22;5268;49.346;9.522;2022-11-21T16:38:41;7.30;99.90
10441;DHT22;5268;49.346;9.522;2022-11-21T16:43:46;7.30;99.90
10441;DHT22;5268;49.346;9.522;2022-11-21T16:48:59;7.30;99.90
10441;DHT22;5268;49.346;9.522;2022-11-21T16:54:01;7.00;99.90
10441;DHT22;5268;49.346;9.522;2022-11-21T16:59:03;6.90;99.90
10441;DHT22;5268;49.346;9.522;2022-11-21T17:04:07;6.70;99.90
10441;DHT22;5268;49.346;9.522;2022-11-21T17:09:10;6.60;99.90
10441;DHT22;5268;49.346;9.522;2022-11-21T17:14:12;6.50;99.90
10441;DHT22;5268;49.346;9.522;2022-11-21T17:19:15;6.40;99.90
10441;DHT22;5268;49.346;9.522;2022-11-21T17:24:18;6.40;99.90
10441;DHT22;5268;49.346;9.522;2022-11-21T17:29:21;6.30;99.90
10441;DHT22;5268;49.346;9.522;2022-11-21T17:34:25;6.30;99.90
10441;DHT22;5268;49.346;9.522;2022-11-21T17:39:27;6.30;99.90
10441;DHT22;5268;49.346;9.522;2022-11-21T17:44:29;6.20;99.90
10441;DHT22;5268;49.346;9.522;2022-11-21T17:49:34;6.20;99.90
10441;DHT22;5268;49.346;9.522;2022-11-21T17:54:37;6.10;99.90
10441;DHT22;5268;49.346;9.522;2022-11-21T17:59:39;6.20;99.90
10441;DHT22;5268;49.346;9.522;2022-11-21T18:04:44;6.10;99.90
10441;DHT22;5268;49.346;9.522;2022-11-21T18:09:46;6.00;99.90
10441;DHT22;5268;49.346;9.522;2022-11-21T18:14:48;6.00;99.90
10441;DHT22;5268;49.346;9.522;2022-11-21T18:19:51;5.90;99.90
10441;DHT22;5268;49.346;9.522;2022-11-21T18:24:53;5.90;99.90
10441;DHT22;5268;49.346;9.522;2022-11-21T18:29:56;5.80;99.90
10441;DHT22;5268;49.346;9.522;2022-11-21T18:34:59;5.80;99.90
10441;DHT22;5268;49.346;9.522;2022-11-21T18:40:01;5.80;99.90
10441;DHT22;5268;49.346;9.522;2022-11-21T18:45:04;5.60;99.90
10441;DHT22;5268;49.346;9.522;2022-11-21T18:50:09;5.50;99.90
10441;DHT22;5268;49.346;9.522;2022-11-21T18:55:11;5.40;99.90
10441;DHT22;5268;49.346;9.522;2022-11-21T19:00:14;5.40;99.90
10441;DHT22;5268;49.346;9.522;2022-11-21T19:05:17;5.40;99.90
10441;DHT22;5268;49.346;9.522;2022-11-21T19:10:19;5.40;99.90
10441;DHT22;5268;49.346;9.522;2022-11-21T19:15:21;5.30;99.90
10441;DHT22;5268;49.346;9.522;2022-11-21T19:20:25;5.30;99.90
10441;DHT22;5268;49.346;9.522;2022-11-21T19:25:27;5.30;99.90
10441;DHT22;5268;49.346;9.522;2022-11-21T19:30:29;5.30;99.90
10441;DHT22;5268;49.346;9.522;2022-11-21T19:35:33;5.30;99.90
10441;DHT22;5268;49.346;9.522;2022-11-21T19:40:37;5.30;99.90
10441;DHT22;5268;49.346;9.522;2022-11-21T19:45:53;5.40;99.90
10441;DHT22;5268;49.346;9.522;2022-11-21T19:50:57;5.40;99.90
10441;DHT22;5268;49.346;9.522;2022-11-21T19:56:06;5.30;99.90
10441;DHT22;5268;49.346;9.522;2022-11-21T20:01:10;5.40;99.90
10441;DHT22;5268;49.346;9.522;2022-11-21T20:06:16;5.40;99.90
10441;DHT22;5268;49.346;9.522;2022-11-21T20:11:18;5.40;99.90
10441;DHT22;5268;49.346;9.522;2022-11-21T20:16:22;5.40;99.90
10441;DHT22;5268;49.346;9.522;2022-11-21T20:21:27;5.40;99.90
10441;DHT22;5268;49.346;9.522;2022-11-21T20:26:29;5.40;99.90
10441;DHT22;5268;49.346;9.522;2022-11-21T20:31:33;5.40;99.90
10441;DHT22;5268;49.346;9.522;2022-11-21T20:36:38;5.30;99.90
10441;DHT22;5268;49.346;9.522;2022-11-21T20:41:41;5.30;99.90
10441;DHT22;5268;49.346;9.522;2022-11-21T20:46:43;5.30;99.90
10441;DHT22;5268;49.346;9.522;2022-11-21T20:51:47;5.30;99.90
10441;DHT22;5268;49.346;9.522;2022-11-21T20:56:50;5.30;99.90
10441;DHT22;5268;49.346;9.522;2022-11-21T21:01:53;5.30;99.90
10441;DHT22;5268;49.346;9.522;2022-11-21T21:06:56;5.30;99.90
10441;DHT22;5268;49.346;9.522;2022-11-21T21:11:58;5.30;99.90
10441;DHT22;5268;49.346;9.522;2022-11-21T21:17:00;5.30;99.90
10441;DHT22;5268;49.346;9.522;2022-11-21T21:22:03;5.30;99.90
10441;DHT22;5268;49.346;9.522;2022-11-21T21:27:06;5.20;99.90
10441;DHT22;5268;49.346;9.522;2022-11-21T21:32:08;5.20;99.90
10441;DHT22;5268;49.346;9.522;2022-11-21T21:37:11;5.20;99.90
10441;DHT22;5268;49.346;9.522;2022-11-21T21:42:13;5.20;99.90
10441;DHT22;5268;49.346;9.522;2022-11-21T21:47:15;5.20;99.90
10441;DHT22;5268;49.346;9.522;2022-11-21T21:52:22;5.30;99.90
10441;DHT22;5268;49.346;9.522;2022-11-21T21:57:24;5.20;99.90
10441;DHT22;5268;49.346;9.522;2022-11-21T22:02:26;5.20;99.90
10441;DHT22;5268;49.346;9.522;2022-11-21T22:07:29;5.20;99.90
10441;DHT22;5268;49.346;9.522;2022-11-21T22:12:33;5.20;99.90
10441;DHT22;5268;49.346;9.522;2022-11-21T22:17:35;5.20;99.90
10441;DHT22;5268;49.346;9.522;2022-11-21T22:22:38;5.20;99.90
10441;DHT22;5268;49.346;9.522;2022-11-21T22:27:41;5.20;99.90
